sensor_id;sensor_type;location;lat;lon;timestamp;temperature;humidity
16388;DHT22;8303;53.446;9.988;2022-07-06T04:46:19;14.20;1.00
16388;DHT22;8303;53.446;9.988;2022-07-06T04:48:48;14.30;1.00
16388;DHT22;8303;53.446;9.988;2022-07-06T04:51:15;14.40;1.00
16388;DHT22;8303;53.446;9.988;2022-07-06T04:53:43;14.40;1.00
16388;DHT22;8303;53.446;9.988;2022-07-06T04:56:11;14.50;1.00
16388;DHT22;8303;53.446;9.988;2022-07-06T05:01:08;14.60;1.00
16388;DHT22;8303;53.446;9.988;2022-07-06T05:03:36;14.60;1.00
16388;DHT22;8303;53.446;9.988;2022-07-06T05:06:07;14.60;1.00
16388;DHT22;8303;53.446;9.988;2022-07-06T05:08:34;14.60;1.00
16388;DHT22;8303;53.446;9.988;2022-07-06T05:11:00;14.70;1.00
16388;DHT22;8303;53.446;9.988;2022-07-06T05:13:27;14.70;1.00
16388;DHT22;8303;53.446;9.988;2022-07-06T05:15:54;14.70;1.00
16388;DHT22;8303;53.446;9.988;2022-07-06T05:18:21;14.80;1.00
16388;DHT22;8303;53.446;9.988;2022-07-06T05:20:50;14.80;1.00
16388;DHT22;8303;53.446;9.988;2022-07-06T05:23:17;14.80;1.00
16388;DHT22;8303;53.446;9.988;2022-07-06T05:25:44;14.80;1.00
16388;DHT22;8303;53.446;9.988;2022-07-06T05:28:10;14.70;1.00
16388;DHT22;8303;53.446;9.988;2022-07-06T05:30:37;14.70;1.00
16388;DHT22;8303;53.446;9.988;2022-07-06T05:33:04;14.70;1.00
16388;DHT22;8303;53.446;9.988;2022-07-06T05:35:31;14.70;1.00
16388;DHT22;8303;53.446;9.988;2022-07-06T05:37:59;14.80;1.00
16388;DHT22;8303;53.446;9.988;2022-07-06T05:40:26;14.80;1.00
16388;DHT22;8303;53.446;9.988;2022-07-06T05:42:53;15.00;1.00
16388;DHT22;8303;53.446;9.988;2022-07-06T05:45:20;15.00;1.00
16388;DHT22;8303;53.446;9.988;2022-07-06T05:47:48;15.00;1.00
16388;DHT22;8303;53.446;9.988;2022-07-06T05:50:32;15.10;1.00
16388;DHT22;8303;53.446;9.988;2022-07-06T05:53:03;15.20;1.00
16388;DHT22;8303;53.446;9.988;2022-07-06T05:55:30;15.40;1.00
16388;DHT22;8303;53.446;9.988;2022-07-06T05:57:58;15.40;1.00
16388;DHT22;8303;53.446;9.988;2022-07-06T06:00:26;15.50;1.00
16388;DHT22;8303;53.446;9.988;2022-07-06T06:02:54;15.60;1.00
16388;DHT22;8303;53.446;9.988;2022-07-06T06:05:21;15.60;1.00
16388;DHT22;8303;53.446;9.988;2022-07-06T06:07:48;15.80;1.00
16388;DHT22;8303;53.446;9.988;2022-07-06T06:10:18;15.80;99.90
16388;DHT22;8303;53.446;9.988;2022-07-06T06:12:47;15.80;99.90
16388;DHT22;8303;53.446;9.988;2022-07-06T06:15:16;15.90;99.90
16388;DHT22;8303;53.446;9.988;2022-07-06T06:17:43;15.80;99.90
16388;DHT22;8303;53.446;9.988;2022-07-06T06:20:12;15.90;99.90
16388;DHT22;8303;53.446;9.988;2022-07-06T06:22:46;15.90;99.90
16388;DHT22;8303;53.446;9.988;2022-07-06T06:25:14;15.80;99.90
16388;DHT22;8303;53.446;9.988;2022-07-06T06:27:42;15.60;99.90
16388;DHT22;8303;53.446;9.988;2022-07-06T06:30:10;15.50;99.90
16388;DHT22;8303;53.446;9.988;2022-07-06T06:32:37;15.30;99.90
16388;DHT22;8303;53.446;9.988;2022-07-06T06:35:05;15.30;99.90
16388;DHT22;8303;53.446;9.988;2022-07-06T06:37:32;15.20;99.90
16388;DHT22;8303;53.446;9.988;2022-07-06T06:39:59;15.30;99.90
16388;DHT22;8303;53.446;9.988;2022-07-06T06:42:26;15.50;99.90
16388;DHT22;8303;53.446;9.988;2022-07-06T06:44:54;15.50;99.90
16388;DHT22;8303;53.446;9.988;2022-07-06T06:47:21;15.60;99.90
16388;DHT22;8303;53.446;9.988;2022-07-06T06:49:48;15.60;99.90
16388;DHT22;8303;53.446;9.988;2022-07-06T06:52:15;15.80;99.90
16388;DHT22;8303;53.446;9.988;2022-07-06T06:54:42;15.90;99.90
16388;DHT22;8303;53.446;9.988;2022-07-06T06:57:08;16.00;99.90
16388;DHT22;8303;53.446;9.988;2022-07-06T06:59:35;16.10;99.90
16388;DHT22;8303;53.446;9.988;2022-07-06T07:02:05;16.30;99.90
16388;DHT22;8303;53.446;9.988;2022-07-06T07:04:32;16.50;99.90
16388;DHT22;8303;53.446;9.988;2022-07-06T07:06:59;16.70;99.90
16388;DHT22;8303;53.446;9.988;2022-07-06T07:09:26;17.00;99.90
16388;DHT22;8303;53.446;9.988;2022-07-06T07:11:52;16.90;99.90
16388;DHT22;8303;53.446;9.988;2022-07-06T07:14:20;16.90;99.90
16388;DHT22;8303;53.446;9.988;2022-07-06T07:16:47;16.90;99.90
16388;DHT22;8303;53.446;9.988;2022-07-06T07:19:15;16.80;99.90
16388;DHT22;8303;53.446;9.988;2022-07-06T07:21:42;17.00;99.90
16388;DHT22;8303;53.446;9.988;2022-07-06T07:24:09;17.00;99.90
16388;DHT22;8303;53.446;9.988;2022-07-06T07:26:36;17.20;99.90
16388;DHT22;8303;53.446;9.988;2022-07-06T07:29:03;17.40;99.90
16388;DHT22;8303;53.446;9.988;2022-07-06T07:31:30;17.60;99.90
16388;DHT22;8303;53.446;9.988;2022-07-06T07:33:57;17.70;99.90
16388;DHT22;8303;53.446;9.988;2022-07-06T07:36:25;17.80;99.90
16388;DHT22;8303;53.446;9.988;2022-07-06T07:38:52;17.60;99.90
16388;DHT22;8303;53.446;9.988;2022-07-06T07:41:19;17.30;99.90
16388;DHT22;8303;53.446;9.988;2022-07-06T07:43:46;16.90;99.90
16388;DHT22;8303;53.446;9.988;2022-07-06T07:46:13;16.80;99.90
16388;DHT22;8303;53.446;9.988;2022-07-06T07:48:40;16.70;99.90
16388;DHT22;8303;53.446;9.988;2022-07-06T07:51:07;16.60;99.90
16388;DHT22;8303;53.446;9.988;2022-07-06T07:53:35;16.60;99.90
16388;DHT22;8303;53.446;9.988;2022-07-06T07:56:02;16.80;99.90
16388;DHT22;8303;53.446;9.988;2022-07-06T07:58:29;17.00;99.90
16388;DHT22;8303;53.446;9.988;2022-07-06T08:00:56;17.30;99.90
16388;DHT22;8303;53.446;9.988;2022-07-06T08:03:23;17.20;99.90
16388;DHT22;8303;53.446;9.988;2022-07-06T08:05:50;17.00;99.90
16388;DHT22;8303;53.446;9.988;2022-07-06T08:08:17;16.80;99.90
16388;DHT22;8303;53.446;9.988;2022-07-06T08:10:45;16.60;99.90
16388;DHT22;8303;53.446;9.988;2022-07-06T08:13:12;16.50;99.90
16388;DHT22;8303;53.446;9.988;2022-07-06T08:15:40;16.40;99.90
16388;DHT22;8303;53.446;9.988;2022-07-06T08:18:08;16.40;99.90
16388;DHT22;8303;53.446;9.988;2022-07-06T08:20:35;16.40;99.90
16388;DHT22;8303;53.446;9.988;2022-07-06T08:23:03;16.40;99.90
16388;DHT22;8303;53.446;9.988;2022-07-06T08:25:30;16.40;99.90
16388;DHT22;8303;53.446;9.988;2022-07-06T08:27:58;16.20;99.90
16388;DHT22;8303;53.446;9.988;2022-07-06T08:30:25;16.20;99.90
16388;DHT22;8303;53.446;9.988;2022-07-06T08:32:52;16.20;99.90
16388;DHT22;8303;53.446;9.988;2022-07-06T08:35:19;16.20;99.90
16388;DHT22;8303;53.446;9.988;2022-07-06T08:37:46;16.30;99.90
16388;DHT22;8303;53.446;9.988;2022-07-06T08:40:13;16.10;99.90
16388;DHT22;8303;53.446;9.988;2022-07-06T08:42:41;15.00;1.00
16388;DHT22;8303;53.446;9.988;2022-07-06T08:45:11;14.30;1.00
16388;DHT22;8303;53.446;9.988;2022-07-06T08:47:38;13.70;1.00
16388;DHT22;8303;53.446;9.988;2022-07-06T08:50:06;13.50;1.00
16388;DHT22;8303;53.446;9.988;2022-07-06T08:52:35;13.50;5.80
16388;DHT22;8303;53.446;9.988;2022-07-06T08:55:04;13.50;1.00
16388;DHT22;8303;53.446;9.988;2022-07-06T08:57:31;13.60;1.00
16388;DHT22;8303;53.446;9.988;2022-07-06T08:59:58;13.80;1.00
16388;DHT22;8303;53.446;9.988;2022-07-06T09:02:27;13.80;1.00
16388;DHT22;8303;53.446;9.988;2022-07-06T09:04:55;14.00;1.00
16388;DHT22;8303;53.446;9.988;2022-07-06T09:07:24;14.20;1.00
16388;DHT22;8303;53.446;9.988;2022-07-06T09:09:54;14.20;1.00
16388;DHT22;8303;53.446;9.988;2022-07-06T09:12:21;14.30;1.00
16388;DHT22;8303;53.446;9.988;2022-07-06T09:14:48;14.50;1.00
16388;DHT22;8303;53.446;9.988;2022-07-06T09:17:15;14.80;1.00
16388;DHT22;8303;53.446;9.988;2022-07-06T09:19:45;15.00;1.00
16388;DHT22;8303;53.446;9.988;2022-07-06T09:22:25;15.30;1.00
16388;DHT22;8303;53.446;9.988;2022-07-06T09:24:52;15.50;1.00
16388;DHT22;8303;53.446;9.988;2022-07-06T09:27:19;15.80;1.00
16388;DHT22;8303;53.446;9.988;2022-07-06T09:29:46;16.10;1.00
16388;DHT22;8303;53.446;9.988;2022-07-06T09:32:20;16.20;1.00
16388;DHT22;8303;53.446;9.988;2022-07-06T09:34:48;16.80;1.00
16388;DHT22;8303;53.446;9.988;2022-07-06T09:37:15;17.20;1.00
16388;DHT22;8303;53.446;9.988;2022-07-06T09:39:43;17.80;1.00
16388;DHT22;8303;53.446;9.988;2022-07-06T09:42:11;17.70;1.00
16388;DHT22;8303;53.446;9.988;2022-07-06T09:44:39;17.30;1.00
16388;DHT22;8303;53.446;9.988;2022-07-06T09:47:08;17.30;1.00
16388;DHT22;8303;53.446;9.988;2022-07-06T09:49:36;17.50;1.00
16388;DHT22;8303;53.446;9.988;2022-07-06T09:52:06;17.60;1.00
16388;DHT22;8303;53.446;9.988;2022-07-06T09:54:34;17.50;1.00
16388;DHT22;8303;53.446;9.988;2022-07-06T09:57:01;17.60;1.00
16388;DHT22;8303;53.446;9.988;2022-07-06T09:59:30;17.90;1.00
16388;DHT22;8303;53.446;9.988;2022-07-06T10:01:59;18.10;99.90
16388;DHT22;8303;53.446;9.988;2022-07-06T10:04:27;18.10;99.90
16388;DHT22;8303;53.446;9.988;2022-07-06T10:06:56;18.20;99.90
16388;DHT22;8303;53.446;9.988;2022-07-06T10:09:26;18.50;99.90
16388;DHT22;8303;53.446;9.988;2022-07-06T10:11:55;18.70;99.90
16388;DHT22;8303;53.446;9.988;2022-07-06T10:14:23;18.80;99.90
16388;DHT22;8303;53.446;9.988;2022-07-06T10:16:55;19.10;99.90
16388;DHT22;8303;53.446;9.988;2022-07-06T10:19:22;19.00;99.90
16388;DHT22;8303;53.446;9.988;2022-07-06T10:21:50;18.70;99.90
16388;DHT22;8303;53.446;9.988;2022-07-06T10:24:19;18.70;99.90
16388;DHT22;8303;53.446;9.988;2022-07-06T10:26:48;18.80;99.90
16388;DHT22;8303;53.446;9.988;2022-07-06T10:29:15;18.70;99.90
16388;DHT22;8303;53.446;9.988;2022-07-06T10:31:44;18.50;99.90
16388;DHT22;8303;53.446;9.988;2022-07-06T10:34:12;18.40;99.90
16388;DHT22;8303;53.446;9.988;2022-07-06T10:36:41;18.90;99.90
16388;DHT22;8303;53.446;9.988;2022-07-06T10:39:09;18.90;99.90
16388;DHT22;8303;53.446;9.988;2022-07-06T10:41:55;18.70;99.90
16388;DHT22;8303;53.446;9.988;2022-07-06T10:44:24;18.40;99.90
16388;DHT22;8303;53.446;9.988;2022-07-06T10:46:52;17.90;99.90
16388;DHT22;8303;53.446;9.988;2022-07-06T10:49:20;17.80;99.90
16388;DHT22;8303;53.446;9.988;2022-07-06T10:51:48;17.60;99.90
16388;DHT22;8303;53.446;9.988;2022-07-06T10:54:17;17.40;99.90
16388;DHT22;8303;53.446;9.988;2022-07-06T10:56:45;17.30;99.90
16388;DHT22;8303;53.446;9.988;2022-07-06T10:59:14;17.10;99.90
16388;DHT22;8303;53.446;9.988;2022-07-06T11:01:41;17.00;99.90
16388;DHT22;8303;53.446;9.988;2022-07-06T11:04:31;16.80;99.90
16388;DHT22;8303;53.446;9.988;2022-07-06T11:07:07;16.50;99.90
16388;DHT22;8303;53.446;9.988;2022-07-06T11:09:36;16.40;99.90
16388;DHT22;8303;53.446;9.988;2022-07-06T11:12:12;16.30;99.90
16388;DHT22;8303;53.446;9.988;2022-07-06T11:14:42;16.00;99.90
16388;DHT22;8303;53.446;9.988;2022-07-06T11:17:10;15.70;1.00
16388;DHT22;8303;53.446;9.988;2022-07-06T11:19:48;15.60;1.00
16388;DHT22;8303;53.446;9.988;2022-07-06T11:22:18;15.60;1.00
16388;DHT22;8303;53.446;9.988;2022-07-06T11:24:45;15.70;1.00
16388;DHT22;8303;53.446;9.988;2022-07-06T11:27:13;15.80;1.00
16388;DHT22;8303;53.446;9.988;2022-07-06T11:29:41;15.90;1.00
16388;DHT22;8303;53.446;9.988;2022-07-06T11:32:11;16.00;1.00
16388;DHT22;8303;53.446;9.988;2022-07-06T11:34:41;16.20;1.00
16388;DHT22;8303;53.446;9.988;2022-07-06T11:37:09;16.50;1.00
16388;DHT22;8303;53.446;9.988;2022-07-06T11:39:38;17.00;1.00
16388;DHT22;8303;53.446;9.988;2022-07-06T11:42:06;17.30;99.90
16388;DHT22;8303;53.446;9.988;2022-07-06T11:44:34;17.40;99.90
16388;DHT22;8303;53.446;9.988;2022-07-06T11:47:03;18.10;99.90
16388;DHT22;8303;53.446;9.988;2022-07-06T11:49:32;18.60;99.90
16388;DHT22;8303;53.446;9.988;2022-07-06T11:52:03;19.10;99.90
16388;DHT22;8303;53.446;9.988;2022-07-06T11:54:32;19.90;99.90
16388;DHT22;8303;53.446;9.988;2022-07-06T11:57:00;20.30;99.90
16388;DHT22;8303;53.446;9.988;2022-07-06T11:59:30;20.60;99.90
16388;DHT22;8303;53.446;9.988;2022-07-06T12:01:58;19.90;99.90
16388;DHT22;8303;53.446;9.988;2022-07-06T12:04:27;19.30;99.90
16388;DHT22;8303;53.446;9.988;2022-07-06T12:06:54;18.70;99.90
16388;DHT22;8303;53.446;9.988;2022-07-06T12:09:21;18.30;99.90
16388;DHT22;8303;53.446;9.988;2022-07-06T12:11:50;18.00;99.90
16388;DHT22;8303;53.446;9.988;2022-07-06T12:14:20;18.00;99.90
16388;DHT22;8303;53.446;9.988;2022-07-06T12:16:48;18.40;99.90
16388;DHT22;8303;53.446;9.988;2022-07-06T12:19:16;18.90;99.90
16388;DHT22;8303;53.446;9.988;2022-07-06T12:21:46;19.00;99.90
16388;DHT22;8303;53.446;9.988;2022-07-06T12:24:20;19.40;99.90
16388;DHT22;8303;53.446;9.988;2022-07-06T12:26:48;20.20;99.90
16388;DHT22;8303;53.446;9.988;2022-07-06T12:29:16;20.50;99.90
16388;DHT22;8303;53.446;9.988;2022-07-06T12:31:44;20.60;99.90
16388;DHT22;8303;53.446;9.988;2022-07-06T12:34:15;19.70;99.90
16388;DHT22;8303;53.446;9.988;2022-07-06T12:36:45;19.20;99.90
16388;DHT22;8303;53.446;9.988;2022-07-06T12:39:12;18.90;99.90
16388;DHT22;8303;53.446;9.988;2022-07-06T12:41:44;18.80;99.90
16388;DHT22;8303;53.446;9.988;2022-07-06T12:44:15;18.90;99.90
16388;DHT22;8303;53.446;9.988;2022-07-06T12:46:43;18.80;99.90
16388;DHT22;8303;53.446;9.988;2022-07-06T12:49:15;19.10;99.90
16388;DHT22;8303;53.446;9.988;2022-07-06T12:51:54;19.70;99.90
16388;DHT22;8303;53.446;9.988;2022-07-06T12:54:22;20.00;99.90
16388;DHT22;8303;53.446;9.988;2022-07-06T12:56:59;20.70;99.90
16388;DHT22;8303;53.446;9.988;2022-07-06T12:59:27;20.50;99.90
16388;DHT22;8303;53.446;9.988;2022-07-06T13:01:59;20.30;99.90
16388;DHT22;8303;53.446;9.988;2022-07-06T13:04:39;20.20;99.90
16388;DHT22;8303;53.446;9.988;2022-07-06T13:07:17;19.90;99.90
16388;DHT22;8303;53.446;9.988;2022-07-06T13:09:45;19.50;99.90
16388;DHT22;8303;53.446;9.988;2022-07-06T13:12:13;19.10;99.90
16388;DHT22;8303;53.446;9.988;2022-07-06T13:14:40;18.90;99.90
16388;DHT22;8303;53.446;9.988;2022-07-06T13:17:07;19.10;99.90
16388;DHT22;8303;53.446;9.988;2022-07-06T13:19:34;19.40;99.90
16388;DHT22;8303;53.446;9.988;2022-07-06T13:22:01;20.30;99.90
16388;DHT22;8303;53.446;9.988;2022-07-06T13:24:29;20.30;99.90
16388;DHT22;8303;53.446;9.988;2022-07-06T13:26:56;20.40;99.90
16388;DHT22;8303;53.446;9.988;2022-07-06T13:29:24;20.50;99.90
16388;DHT22;8303;53.446;9.988;2022-07-06T13:31:51;20.10;99.90
16388;DHT22;8303;53.446;9.988;2022-07-06T13:34:17;19.50;99.90
16388;DHT22;8303;53.446;9.988;2022-07-06T13:36:44;20.00;99.90
16388;DHT22;8303;53.446;9.988;2022-07-06T13:39:11;20.30;99.90
16388;DHT22;8303;53.446;9.988;2022-07-06T13:41:39;21.10;99.90
16388;DHT22;8303;53.446;9.988;2022-07-06T13:44:06;21.50;99.90
16388;DHT22;8303;53.446;9.988;2022-07-06T13:46:35;20.80;99.90
16388;DHT22;8303;53.446;9.988;2022-07-06T13:49:03;20.60;99.90
16388;DHT22;8303;53.446;9.988;2022-07-06T13:51:30;20.30;99.90
16388;DHT22;8303;53.446;9.988;2022-07-06T13:53:58;19.90;99.90
16388;DHT22;8303;53.446;9.988;2022-07-06T13:56:25;20.30;99.90
16388;DHT22;8303;53.446;9.988;2022-07-06T13:58:54;21.10;99.90
16388;DHT22;8303;53.446;9.988;2022-07-06T14:01:21;21.30;99.90
16388;DHT22;8303;53.446;9.988;2022-07-06T14:03:48;21.00;99.90
16388;DHT22;8303;53.446;9.988;2022-07-06T14:06:16;20.80;99.90
16388;DHT22;8303;53.446;9.988;2022-07-06T14:08:47;20.90;99.90
16388;DHT22;8303;53.446;9.988;2022-07-06T14:11:13;21.60;99.90
16388;DHT22;8303;53.446;9.988;2022-07-06T14:13:41;21.60;99.90
16388;DHT22;8303;53.446;9.988;2022-07-06T14:16:09;21.10;99.90
16388;DHT22;8303;53.446;9.988;2022-07-06T14:18:38;20.60;99.90
16388;DHT22;8303;53.446;9.988;2022-07-06T14:21:05;20.00;99.90
16388;DHT22;8303;53.446;9.988;2022-07-06T14:23:32;19.90;99.90
16388;DHT22;8303;53.446;9.988;2022-07-06T14:25:59;20.10;99.90
16388;DHT22;8303;53.446;9.988;2022-07-06T14:28:25;20.60;99.90
16388;DHT22;8303;53.446;9.988;2022-07-06T14:30:52;21.60;99.90
16388;DHT22;8303;53.446;9.988;2022-07-06T14:33:20;22.70;99.90
16388;DHT22;8303;53.446;9.988;2022-07-06T14:35:49;23.50;99.90
16388;DHT22;8303;53.446;9.988;2022-07-06T14:38:17;22.50;99.90
16388;DHT22;8303;53.446;9.988;2022-07-06T14:40:44;21.00;99.90
16388;DHT22;8303;53.446;9.988;2022-07-06T14:43:13;20.60;99.90
16388;DHT22;8303;53.446;9.988;2022-07-06T14:45:40;20.10;99.90
16388;DHT22;8303;53.446;9.988;2022-07-06T14:48:07;19.90;99.90
16388;DHT22;8303;53.446;9.988;2022-07-06T14:50:36;19.70;99.90
16388;DHT22;8303;53.446;9.988;2022-07-06T14:53:04;19.90;99.90
16388;DHT22;8303;53.446;9.988;2022-07-06T14:55:31;20.30;99.90
16388;DHT22;8303;53.446;9.988;2022-07-06T14:57:58;20.90;99.90
16388;DHT22;8303;53.446;9.988;2022-07-06T15:00:25;21.50;99.90
16388;DHT22;8303;53.446;9.988;2022-07-06T15:02:51;22.60;99.90
16388;DHT22;8303;53.446;9.988;2022-07-06T15:05:18;23.60;99.90
16388;DHT22;8303;53.446;9.988;2022-07-06T15:07:46;23.70;99.90
16388;DHT22;8303;53.446;9.988;2022-07-06T15:10:13;23.20;99.90
16388;DHT22;8303;53.446;9.988;2022-07-06T15:12:40;23.80;99.90
16388;DHT22;8303;53.446;9.988;2022-07-06T15:15:07;24.20;99.90
16388;DHT22;8303;53.446;9.988;2022-07-06T15:17:35;24.70;99.90
16388;DHT22;8303;53.446;9.988;2022-07-06T15:20:02;23.10;99.90
16388;DHT22;8303;53.446;9.988;2022-07-06T15:22:29;21.80;99.90
16388;DHT22;8303;53.446;9.988;2022-07-06T15:24:57;20.70;99.90
16388;DHT22;8303;53.446;9.988;2022-07-06T15:27:24;20.20;99.90
16388;DHT22;8303;53.446;9.988;2022-07-06T15:29:50;20.00;99.90
16388;DHT22;8303;53.446;9.988;2022-07-06T15:32:17;20.20;99.90
16388;DHT22;8303;53.446;9.988;2022-07-06T15:34:44;19.40;99.90
16388;DHT22;8303;53.446;9.988;2022-07-06T15:37:11;19.40;99.90
16388;DHT22;8303;53.446;9.988;2022-07-06T15:39:38;19.60;99.90
16388;DHT22;8303;53.446;9.988;2022-07-06T15:42:06;19.70;99.90
16388;DHT22;8303;53.446;9.988;2022-07-06T15:44:33;19.60;99.90
16388;DHT22;8303;53.446;9.988;2022-07-06T15:47:04;19.80;99.90
16388;DHT22;8303;53.446;9.988;2022-07-06T15:49:32;22.20;99.90
16388;DHT22;8303;53.446;9.988;2022-07-06T15:51:59;23.50;99.90
16388;DHT22;8303;53.446;9.988;2022-07-06T15:54:26;23.40;99.90
16388;DHT22;8303;53.446;9.988;2022-07-06T15:56:53;25.00;99.90
16388;DHT22;8303;53.446;9.988;2022-07-06T15:59:21;24.60;99.90
16388;DHT22;8303;53.446;9.988;2022-07-06T16:01:49;22.30;99.90
16388;DHT22;8303;53.446;9.988;2022-07-06T16:04:16;21.50;99.90
16388;DHT22;8303;53.446;9.988;2022-07-06T16:06:44;21.10;99.90
16388;DHT22;8303;53.446;9.988;2022-07-06T16:09:11;21.50;99.90
16388;DHT22;8303;53.446;9.988;2022-07-06T16:11:37;22.10;99.90
16388;DHT22;8303;53.446;9.988;2022-07-06T16:14:04;26.10;99.90
16388;DHT22;8303;53.446;9.988;2022-07-06T16:16:33;27.40;99.90
16388;DHT22;8303;53.446;9.988;2022-07-06T16:18:59;29.30;99.90
16388;DHT22;8303;53.446;9.988;2022-07-06T16:21:28;29.10;99.90
16388;DHT22;8303;53.446;9.988;2022-07-06T16:23:55;28.90;99.90
16388;DHT22;8303;53.446;9.988;2022-07-06T16:26:22;28.30;99.90
16388;DHT22;8303;53.446;9.988;2022-07-06T16:28:49;27.40;99.90
16388;DHT22;8303;53.446;9.988;2022-07-06T16:31:16;25.50;99.90
16388;DHT22;8303;53.446;9.988;2022-07-06T16:33:44;24.60;99.90
16388;DHT22;8303;53.446;9.988;2022-07-06T16:36:11;25.30;99.90
16388;DHT22;8303;53.446;9.988;2022-07-06T16:38:41;27.40;99.90
16388;DHT22;8303;53.446;9.988;2022-07-06T16:41:08;27.80;99.90
16388;DHT22;8303;53.446;9.988;2022-07-06T16:43:34;27.00;99.90
16388;DHT22;8303;53.446;9.988;2022-07-06T16:46:01;27.50;99.90
16388;DHT22;8303;53.446;9.988;2022-07-06T16:48:29;27.20;99.90
16388;DHT22;8303;53.446;9.988;2022-07-06T16:50:57;24.10;99.90
16388;DHT22;8303;53.446;9.988;2022-07-06T16:53:24;23.00;99.90
16388;DHT22;8303;53.446;9.988;2022-07-06T16:55:51;21.90;99.90
16388;DHT22;8303;53.446;9.988;2022-07-06T16:58:18;21.40;99.90
16388;DHT22;8303;53.446;9.988;2022-07-06T17:00:45;20.70;99.90
16388;DHT22;8303;53.446;9.988;2022-07-06T17:03:12;20.50;99.90
16388;DHT22;8303;53.446;9.988;2022-07-06T17:05:39;20.40;99.90
16388;DHT22;8303;53.446;9.988;2022-07-06T17:08:08;20.30;99.90
16388;DHT22;8303;53.446;9.988;2022-07-06T17:10:34;20.30;99.90
16388;DHT22;8303;53.446;9.988;2022-07-06T17:13:02;20.30;99.90
16388;DHT22;8303;53.446;9.988;2022-07-06T17:15:29;20.30;99.90
16388;DHT22;8303;53.446;9.988;2022-07-06T17:17:57;20.20;99.90
16388;DHT22;8303;53.446;9.988;2022-07-06T17:20:24;20.30;99.90
16388;DHT22;8303;53.446;9.988;2022-07-06T17:22:51;20.30;99.90
16388;DHT22;8303;53.446;9.988;2022-07-06T17:25:23;20.30;99.90
16388;DHT22;8303;53.446;9.988;2022-07-06T17:27:50;20.30;99.90
16388;DHT22;8303;53.446;9.988;2022-07-06T17:30:17;20.30;99.90
16388;DHT22;8303;53.446;9.988;2022-07-06T17:32:44;20.30;99.90
16388;DHT22;8303;53.446;9.988;2022-07-06T17:35:11;20.30;99.90
16388;DHT22;8303;53.446;9.988;2022-07-06T17:37:38;20.40;99.90
16388;DHT22;8303;53.446;9.988;2022-07-06T17:40:07;20.30;99.90
16388;DHT22;8303;53.446;9.988;2022-07-06T17:42:35;20.00;99.90
16388;DHT22;8303;53.446;9.988;2022-07-06T17:45:02;19.90;99.90
16388;DHT22;8303;53.446;9.988;2022-07-06T17:47:29;19.70;99.90
16388;DHT22;8303;53.446;9.988;2022-07-06T17:49:57;19.60;99.90
16388;DHT22;8303;53.446;9.988;2022-07-06T17:52:24;19.40;99.90
16388;DHT22;8303;53.446;9.988;2022-07-06T17:54:51;19.30;99.90
16388;DHT22;8303;53.446;9.988;2022-07-06T17:57:18;19.20;99.90
16388;DHT22;8303;53.446;9.988;2022-07-06T17:59:46;19.30;99.90
16388;DHT22;8303;53.446;9.988;2022-07-06T18:02:13;19.20;99.90
16388;DHT22;8303;53.446;9.988;2022-07-06T18:04:40;19.00;99.90
16388;DHT22;8303;53.446;9.988;2022-07-06T18:07:06;19.00;99.90
16388;DHT22;8303;53.446;9.988;2022-07-06T18:09:33;18.90;99.90
16388;DHT22;8303;53.446;9.988;2022-07-06T18:12:00;18.80;99.90
16388;DHT22;8303;53.446;9.988;2022-07-06T18:14:27;18.70;99.90
16388;DHT22;8303;53.446;9.988;2022-07-06T18:16:56;18.70;99.90
16388;DHT22;8303;53.446;9.988;2022-07-06T18:19:23;18.60;99.90
16388;DHT22;8303;53.446;9.988;2022-07-06T18:21:49;18.60;99.90
16388;DHT22;8303;53.446;9.988;2022-07-06T18:24:16;18.50;99.90
16388;DHT22;8303;53.446;9.988;2022-07-06T18:26:43;18.50;99.90
16388;DHT22;8303;53.446;9.988;2022-07-06T18:29:11;18.50;99.90
16388;DHT22;8303;53.446;9.988;2022-07-06T18:31:39;18.40;99.90
16388;DHT22;8303;53.446;9.988;2022-07-06T18:34:08;18.40;99.90
16388;DHT22;8303;53.446;9.988;2022-07-06T18:36:36;18.40;99.90
16388;DHT22;8303;53.446;9.988;2022-07-06T18:39:03;18.40;99.90
16388;DHT22;8303;53.446;9.988;2022-07-06T18:41:31;18.40;99.90
16388;DHT22;8303;53.446;9.988;2022-07-06T18:43:58;18.40;99.90
16388;DHT22;8303;53.446;9.988;2022-07-06T18:46:25;18.40;99.90
16388;DHT22;8303;53.446;9.988;2022-07-06T18:48:53;18.30;99.90
16388;DHT22;8303;53.446;9.988;2022-07-06T18:51:21;18.20;99.90
16388;DHT22;8303;53.446;9.988;2022-07-06T18:53:48;18.20;99.90
16388;DHT22;8303;53.446;9.988;2022-07-06T18:56:15;18.20;99.90
16388;DHT22;8303;53.446;9.988;2022-07-06T18:58:42;18.10;99.90
16388;DHT22;8303;53.446;9.988;2022-07-06T19:01:09;18.10;99.90
16388;DHT22;8303;53.446;9.988;2022-07-06T19:03:36;18.10;99.90
16388;DHT22;8303;53.446;9.988;2022-07-06T19:06:03;18.10;99.90
16388;DHT22;8303;53.446;9.988;2022-07-06T19:08:31;18.10;99.90
16388;DHT22;8303;53.446;9.988;2022-07-06T19:10:58;18.00;99.90
16388;DHT22;8303;53.446;9.988;2022-07-06T19:13:25;18.10;99.90
16388;DHT22;8303;53.446;9.988;2022-07-06T19:15:52;18.00;99.90
16388;DHT22;8303;53.446;9.988;2022-07-06T19:18:19;18.00;99.90
16388;DHT22;8303;53.446;9.988;2022-07-06T19:20:45;18.00;99.90
16388;DHT22;8303;53.446;9.988;2022-07-06T19:23:12;17.90;99.90
16388;DHT22;8303;53.446;9.988;2022-07-06T19:25:41;17.90;99.90
16388;DHT22;8303;53.446;9.988;2022-07-06T19:28:08;17.90;99.90
16388;DHT22;8303;53.446;9.988;2022-07-06T19:30:35;17.80;99.90
16388;DHT22;8303;53.446;9.988;2022-07-06T19:33:02;17.80;99.90
16388;DHT22;8303;53.446;9.988;2022-07-06T19:35:29;17.80;99.90
16388;DHT22;8303;53.446;9.988;2022-07-06T19:37:57;17.70;99.90
16388;DHT22;8303;53.446;9.988;2022-07-06T19:40:26;17.60;99.90
16388;DHT22;8303;53.446;9.988;2022-07-06T19:42:54;17.50;99.90
16388;DHT22;8303;53.446;9.988;2022-07-06T19:45:21;17.40;99.90
16388;DHT22;8303;53.446;9.988;2022-07-06T19:47:48;17.20;99.90
16388;DHT22;8303;53.446;9.988;2022-07-06T19:50:15;17.00;99.90
16388;DHT22;8303;53.446;9.988;2022-07-06T19:52:42;16.60;99.90
16388;DHT22;8303;53.446;9.988;2022-07-06T19:55:09;16.30;99.90
16388;DHT22;8303;53.446;9.988;2022-07-06T19:57:36;16.00;99.90
16388;DHT22;8303;53.446;9.988;2022-07-06T20:00:06;15.80;99.90
16388;DHT22;8303;53.446;9.988;2022-07-06T20:02:33;15.80;99.90
16388;DHT22;8303;53.446;9.988;2022-07-06T20:05:00;15.80;1.00
16388;DHT22;8303;53.446;9.988;2022-07-06T20:07:27;15.70;1.00
16388;DHT22;8303;53.446;9.988;2022-07-06T20:09:54;15.60;1.00
16388;DHT22;8303;53.446;9.988;2022-07-06T20:12:21;15.60;1.00
16388;DHT22;8303;53.446;9.988;2022-07-06T20:14:48;15.40;1.00
16388;DHT22;8303;53.446;9.988;2022-07-06T20:17:16;15.30;1.00
16388;DHT22;8303;53.446;9.988;2022-07-06T20:19:44;15.20;1.00
16388;DHT22;8303;53.446;9.988;2022-07-06T20:22:11;15.20;1.00
16388;DHT22;8303;53.446;9.988;2022-07-06T20:24:37;15.20;1.00
16388;DHT22;8303;53.446;9.988;2022-07-06T20:27:04;15.10;1.00
16388;DHT22;8303;53.446;9.988;2022-07-06T20:29:31;15.10;1.00
